createdAt,value
2019-02-25T00:01:34.632Z,40.10
2019-02-25T00:04:00.645Z,39.40
2019-02-25T00:06:26.661Z,39.90
2019-02-25T00:08:52.719Z,40.20
2019-02-25T00:11:18.741Z,41.30
2019-02-25T00:13:44.780Z,41.90
2019-02-25T00:16:10.796Z,42.30
2019-02-25T00:18:36.833Z,41.20
2019-02-25T00:21:02.837Z,41.80
2019-02-25T00:23:28.871Z,42.10
2019-02-25T00:25:54.899Z,42.70
2019-02-25T00:28:20.918Z,42.40
2019-02-25T00:30:46.924Z,44.00
2019-02-25T00:33:12.959Z,43.40
2019-02-25T00:35:38.976Z,44.30
2019-02-25T00:38:05.007Z,43.20
2019-02-25T00:40:31.032Z,43.70
2019-02-25T00:42:57.060Z,43.90
2019-02-25T00:45:23.074Z,41.70
2019-02-25T00:47:49.106Z,42.40
2019-02-25T00:50:36.909Z,41.40
2019-02-25T00:53:02.964Z,41.70
2019-02-25T00:55:28.976Z,42.10
2019-02-25T00:57:55.027Z,42.30
2019-02-25T01:00:21.766Z,41.70
2019-02-25T01:02:47.795Z,41.60
2019-02-25T01:05:14.911Z,41.00
2019-02-25T01:07:41.040Z,42.50
2019-02-25T01:10:11.991Z,40.90
2019-02-25T01:12:38.043Z,40.30
2019-02-25T01:15:06.643Z,40.70
2019-02-25T01:17:32.685Z,40.70
2019-02-25T01:19:58.698Z,41.70
2019-02-25T01:22:24.705Z,43.20
2019-02-25T01:24:51.861Z,43.20
2019-02-25T01:27:17.880Z,43.40
2019-02-25T01:29:43.907Z,43.80
2019-02-25T01:32:09.939Z,44.10
2019-02-25T01:34:35.979Z,43.90
2019-02-25T01:37:01.991Z,43.00
2019-02-25T01:39:28.015Z,43.50
2019-02-25T01:41:54.031Z,44.30
2019-02-25T01:44:20.064Z,42.90
2019-02-25T01:46:46.216Z,42.90
2019-02-25T01:49:32.124Z,43.50
2019-02-25T01:51:58.141Z,41.80
2019-02-25T01:54:24.188Z,42.10
2019-02-25T01:56:50.201Z,41.40
2019-02-25T01:59:16.232Z,43.70
2019-02-25T02:01:42.247Z,42.10
2019-02-25T02:04:08.288Z,42.10
2019-02-25T02:06:34.318Z,42.80
2019-02-25T02:09:00.375Z,42.10
2019-02-25T02:11:26.395Z,42.40
2019-02-25T02:13:52.431Z,44.10
2019-02-25T02:16:18.452Z,43.80
2019-02-25T02:18:44.488Z,44.30
2019-02-25T02:21:10.503Z,44.80
2019-02-25T02:23:36.539Z,45.90
2019-02-25T02:26:02.629Z,45.00
2019-02-25T02:28:28.660Z,45.40
2019-02-25T02:30:54.672Z,45.40
2019-02-25T02:33:20.708Z,45.60
2019-02-25T02:35:46.722Z,46.40
2019-02-25T02:38:12.737Z,45.00
2019-02-25T02:40:38.766Z,45.20
2019-02-25T02:43:04.778Z,45.50
2019-02-25T02:45:34.607Z,46.20
2019-02-25T02:48:03.925Z,46.70
2019-02-25T02:50:29.974Z,46.60
2019-02-25T02:52:55.985Z,47.80
2019-02-25T02:55:22.035Z,46.80
2019-02-25T02:57:48.070Z,46.50
2019-02-25T03:00:16.168Z,47.00
2019-02-25T03:02:42.315Z,45.40
2019-02-25T03:05:10.660Z,47.20
2019-02-25T03:07:36.771Z,47.30
2019-02-25T03:10:06.207Z,47.70
2019-02-25T03:12:32.219Z,46.90
2019-02-25T03:14:58.254Z,44.70
2019-02-25T03:17:24.274Z,44.50
2019-02-25T03:19:50.307Z,43.30
2019-02-25T03:22:16.383Z,44.10
2019-02-25T03:24:42.438Z,42.20
2019-02-25T03:27:08.462Z,42.30
2019-02-25T03:29:34.494Z,42.80
2019-02-25T03:32:00.523Z,41.20
2019-02-25T03:34:26.544Z,41.30
2019-02-25T03:36:52.551Z,43.20
2019-02-25T03:39:18.939Z,41.80
2019-02-25T03:41:44.957Z,41.50
2019-02-25T03:44:10.984Z,41.20
2019-02-25T03:46:37.003Z,42.00
2019-02-25T03:49:03.032Z,42.40
2019-02-25T03:51:29.079Z,41.20
2019-02-25T03:53:55.100Z,40.50
2019-02-25T03:56:21.135Z,40.80
2019-02-25T03:58:47.312Z,40.60
2019-02-25T04:01:13.350Z,41.20
2019-02-25T04:03:39.463Z,41.60
2019-02-25T04:06:05.499Z,41.10
2019-02-25T04:08:31.556Z,40.70
2019-02-25T04:10:57.600Z,41.40
2019-02-25T04:13:23.653Z,40.40
2019-02-25T04:15:49.688Z,40.10
2019-02-25T04:18:15.703Z,39.70
2019-02-25T04:20:41.741Z,40.30
2019-02-25T04:23:07.755Z,39.90
2019-02-25T04:25:33.865Z,40.20
2019-02-25T04:27:59.919Z,39.50
2019-02-25T04:30:25.951Z,39.50
2019-02-25T04:32:51.979Z,39.90
2019-02-25T04:35:18.017Z,39.00
2019-02-25T04:37:44.028Z,39.00
2019-02-25T04:40:11.869Z,38.60
2019-02-25T04:42:37.901Z,38.30
2019-02-25T04:45:07.639Z,39.50
2019-02-25T04:47:33.656Z,38.90
2019-02-25T04:49:59.690Z,40.10
2019-02-25T04:52:25.711Z,39.90
2019-02-25T04:54:51.828Z,40.50
2019-02-25T04:57:17.840Z,42.00
2019-02-25T04:59:43.857Z,41.40
2019-02-25T05:02:09.885Z,40.40
2019-02-25T05:04:35.907Z,41.50
2019-02-25T05:07:01.945Z,40.10
2019-02-25T05:09:27.951Z,40.50
2019-02-25T05:11:54.024Z,42.70
2019-02-25T05:14:20.044Z,42.80
2019-02-25T05:16:46.086Z,41.60
2019-02-25T05:19:12.105Z,42.10
2019-02-25T05:21:38.153Z,40.70
2019-02-25T05:24:04.168Z,40.70
2019-02-25T05:26:30.248Z,41.10
2019-02-25T05:28:56.276Z,40.50
2019-02-25T05:31:22.323Z,41.60
2019-02-25T05:33:48.340Z,42.10
2019-02-25T05:36:14.360Z,41.50
2019-02-25T05:38:40.380Z,42.60
2019-02-25T05:41:06.420Z,41.80
2019-02-25T05:43:32.479Z,42.50
2019-02-25T05:45:58.514Z,43.50
2019-02-25T05:48:24.533Z,42.00
2019-02-25T05:50:50.567Z,42.60
2019-02-25T05:53:16.675Z,42.00
2019-02-25T05:55:42.732Z,42.40
2019-02-25T05:58:08.752Z,40.90
2019-02-25T06:00:35.500Z,42.00
2019-02-25T06:03:01.516Z,41.10
2019-02-25T06:05:27.634Z,40.60
2019-02-25T06:07:53.727Z,40.40
2019-02-25T06:10:19.762Z,39.70
2019-02-25T06:12:45.796Z,40.10
2019-02-25T06:15:18.575Z,39.00
2019-02-25T06:17:44.608Z,39.30
2019-02-25T06:20:12.731Z,39.60
2019-02-25T06:22:38.784Z,39.20
2019-02-25T06:25:07.343Z,38.90
2019-02-25T06:27:33.485Z,38.70
2019-02-25T06:29:59.495Z,39.30
2019-02-25T06:32:25.565Z,39.40
2019-02-25T06:34:51.595Z,40.20
2019-02-25T06:37:17.624Z,38.90
2019-02-25T06:39:43.636Z,39.40
2019-02-25T06:42:09.659Z,39.60
2019-02-25T06:44:35.687Z,38.50
2019-02-25T06:47:02.004Z,40.60
2019-02-25T06:49:28.020Z,40.20
2019-02-25T06:51:54.051Z,39.50
2019-02-25T06:54:20.119Z,38.60
2019-02-25T06:56:46.167Z,39.30
2019-02-25T06:59:12.175Z,39.10
2019-02-25T07:01:38.212Z,40.40
2019-02-25T07:04:08.715Z,39.30
2019-02-25T07:06:36.655Z,39.30
2019-02-25T07:09:05.275Z,38.90
2019-02-25T07:11:39.499Z,38.90
2019-02-25T07:14:09.931Z,39.90
2019-02-25T07:16:37.843Z,39.20
2019-02-25T07:19:08.558Z,38.60
2019-02-25T07:21:36.507Z,39.40
2019-02-25T07:24:04.688Z,38.60
2019-02-25T07:26:41.523Z,39.40
2019-02-25T07:29:18.267Z,37.50
2019-02-25T07:31:52.031Z,37.70
2019-02-25T07:34:31.524Z,37.80
2019-02-25T07:37:17.331Z,36.20
2019-02-25T07:39:54.107Z,37.10
2019-02-25T07:42:22.043Z,37.20
2019-02-25T07:44:49.964Z,36.30
2019-02-25T07:47:29.971Z,36.30
2019-02-25T07:50:09.748Z,36.40
2019-02-25T07:52:49.821Z,36.20
2019-02-25T07:55:34.123Z,36.00
2019-02-25T07:58:02.073Z,36.70
2019-02-25T08:00:35.911Z,35.80
2019-02-25T08:03:03.858Z,35.80
2019-02-25T08:05:43.808Z,35.70
2019-02-25T08:08:28.314Z,35.40
2019-02-25T08:11:14.339Z,35.10
2019-02-25T08:13:42.299Z,35.20
2019-02-25T08:16:16.455Z,35.20
2019-02-25T08:18:47.467Z,34.90
2019-02-25T08:21:24.262Z,35.10
2019-02-25T08:23:57.764Z,35.10
2019-02-25T08:26:25.680Z,34.40
2019-02-25T08:28:56.140Z,34.20
2019-02-25T08:31:36.367Z,34.10
2019-02-25T08:34:20.776Z,34.30
2019-02-25T08:37:02.123Z,34.30
2019-02-25T08:39:27.779Z,33.90
2019-02-25T08:42:04.884Z,35.10
2019-02-25T08:44:38.854Z,33.00
2019-02-25T08:47:09.559Z,32.20
2019-02-25T08:49:37.475Z,32.30
2019-02-25T08:52:03.510Z,32.20
2019-02-25T08:54:29.655Z,31.60
2019-02-25T08:56:55.663Z,31.30
2019-02-25T08:59:21.700Z,31.40
2019-02-25T09:01:47.711Z,31.90
2019-02-25T09:04:13.745Z,31.20
2019-02-25T09:06:39.771Z,31.00
2019-02-25T09:09:06.004Z,32.40
2019-02-25T09:11:32.025Z,31.20
2019-02-25T09:13:58.058Z,30.60
2019-02-25T09:18:50.475Z,29.90
2019-02-25T09:21:16.486Z,30.50
2019-02-25T09:23:42.520Z,30.10
2019-02-25T09:26:08.539Z,29.90
2019-02-25T09:28:34.581Z,29.80
2019-02-25T09:31:00.600Z,30.00
2019-02-25T09:33:26.661Z,30.20
2019-02-25T09:35:52.667Z,29.50
2019-02-25T09:38:18.697Z,30.70
2019-02-25T09:40:44.708Z,29.80
2019-02-25T09:43:10.746Z,29.90
2019-02-25T09:45:36.774Z,30.20
2019-02-25T09:48:02.908Z,30.00
2019-02-25T09:50:28.928Z,29.70
2019-02-25T09:52:54.955Z,30.40
2019-02-25T09:55:20.987Z,30.10
2019-02-25T09:57:47.022Z,30.90
2019-02-25T10:00:18.747Z,31.40
2019-02-25T10:02:44.780Z,30.40
2019-02-25T10:05:10.824Z,31.20
2019-02-25T10:07:36.899Z,31.10
2019-02-25T10:10:08.920Z,30.70
2019-02-25T10:12:34.951Z,30.90
2019-02-25T10:15:00.968Z,30.50
2019-02-25T10:17:26.986Z,30.50
2019-02-25T10:19:53.011Z,30.60
2019-02-25T10:22:19.030Z,30.00
2019-02-25T10:24:45.065Z,30.20
2019-02-25T10:27:11.079Z,30.60
2019-02-25T10:29:37.112Z,30.50
2019-02-25T10:32:04.833Z,30.90
2019-02-25T10:34:31.078Z,30.40
2019-02-25T10:36:57.096Z,29.80
2019-02-25T10:39:23.128Z,29.80
2019-02-25T10:41:51.064Z,30.10
2019-02-25T10:44:17.112Z,30.50
2019-02-25T10:46:44.828Z,30.20
2019-02-25T10:49:11.810Z,29.70
2019-02-25T10:51:40.630Z,29.50
2019-02-25T10:54:05.939Z,30.00
2019-02-25T10:56:35.771Z,29.90
2019-02-25T10:59:03.882Z,29.40
2019-02-25T11:01:29.807Z,29.40
2019-02-25T11:03:55.835Z,29.40
2019-02-25T11:06:21.846Z,29.40
2019-02-25T11:08:49.785Z,29.80
2019-02-25T11:11:22.641Z,30.00
2019-02-25T11:13:58.763Z,29.90
2019-02-25T11:16:24.759Z,29.70
2019-02-25T11:18:52.779Z,30.00
2019-02-25T11:21:18.708Z,30.10
2019-02-25T11:23:45.186Z,29.90
2019-02-25T11:26:12.659Z,29.60
2019-02-25T11:28:41.089Z,29.70
2019-02-25T11:31:06.628Z,29.80
2019-02-25T11:33:34.399Z,30.00
2019-02-25T11:36:00.707Z,29.50
2019-02-25T11:38:28.780Z,29.50
2019-02-25T11:40:54.775Z,29.30
2019-02-25T11:43:21.545Z,29.50
2019-02-25T11:45:47.923Z,29.90
2019-02-25T11:48:13.960Z,29.40
2019-02-25T11:50:40.027Z,29.90
2019-02-25T11:53:06.044Z,29.80
2019-02-25T11:55:32.175Z,30.00
2019-02-25T11:57:58.191Z,29.80
2019-02-25T12:00:25.123Z,29.90
2019-02-25T12:02:51.140Z,30.00
2019-02-25T12:05:18.089Z,30.30
2019-02-25T12:07:44.203Z,29.40
2019-02-25T12:10:30.116Z,29.60
2019-02-25T12:12:56.138Z,30.70
2019-02-25T12:15:22.373Z,29.90
2019-02-25T12:17:48.389Z,29.80
2019-02-25T12:20:14.423Z,29.50
2019-02-25T12:22:40.439Z,29.50
2019-02-25T12:25:12.626Z,29.90
2019-02-25T12:27:38.679Z,30.10
2019-02-25T12:30:08.523Z,29.50
2019-02-25T12:32:34.542Z,29.60
2019-02-25T12:35:01.936Z,29.50
2019-02-25T12:37:27.950Z,29.40
2019-02-25T12:39:53.984Z,29.60
2019-02-25T12:42:20.008Z,29.80
2019-02-25T12:44:46.043Z,29.10
2019-02-25T12:47:12.056Z,29.30
2019-02-25T12:49:38.093Z,29.40
2019-02-25T12:52:04.099Z,29.70
2019-02-25T12:54:30.135Z,29.30
2019-02-25T12:56:56.151Z,29.60
2019-02-25T12:59:22.189Z,29.90
2019-02-25T13:01:48.202Z,30.40
2019-02-25T13:04:14.241Z,30.90
2019-02-25T13:06:40.255Z,30.80
2019-02-25T13:09:10.074Z,30.10
2019-02-25T13:11:36.112Z,30.00
2019-02-25T13:14:02.128Z,29.90
2019-02-25T13:16:28.190Z,30.20
2019-02-25T13:18:54.207Z,30.70
2019-02-25T13:21:20.239Z,30.30
2019-02-25T13:23:46.256Z,29.80
2019-02-25T13:26:12.302Z,29.80
2019-02-25T13:28:38.427Z,29.50
2019-02-25T13:31:05.696Z,29.40
2019-02-25T13:33:32.402Z,30.00
2019-02-25T13:35:58.523Z,29.90
2019-02-25T13:38:24.631Z,29.80
2019-02-25T13:40:50.663Z,30.10
2019-02-25T13:43:16.771Z,30.60
2019-02-25T13:45:42.807Z,30.00
2019-02-25T13:48:08.924Z,30.00
2019-02-25T13:50:35.063Z,30.00
2019-02-25T13:53:01.171Z,29.90
2019-02-25T13:55:27.299Z,30.40
2019-02-25T13:57:53.315Z,30.80
2019-02-25T14:00:21.053Z,30.60
2019-02-25T14:02:47.267Z,31.10
2019-02-25T14:05:13.591Z,30.30
2019-02-25T14:07:39.707Z,30.40
2019-02-25T14:10:09.047Z,30.50
2019-02-25T14:12:35.063Z,31.90
2019-02-25T14:15:01.195Z,31.50
2019-02-25T14:17:27.321Z,31.30
2019-02-25T14:19:53.648Z,31.90
2019-02-25T14:22:19.686Z,30.90
2019-02-25T14:24:45.895Z,31.30
2019-02-25T14:27:11.961Z,31.20
2019-02-25T14:29:37.991Z,31.40
2019-02-25T14:32:04.128Z,31.40
2019-02-25T14:34:30.140Z,31.60
2019-02-25T14:36:57.195Z,31.90
2019-02-25T14:39:27.746Z,32.50
2019-02-25T14:41:54.415Z,32.40
2019-02-25T14:44:19.939Z,32.70
2019-02-25T14:46:46.071Z,33.60
2019-02-25T14:49:12.084Z,33.80
2019-02-25T14:51:38.216Z,33.90
2019-02-25T14:54:04.344Z,33.80
2019-02-25T14:56:30.675Z,34.70
2019-02-25T14:58:56.709Z,35.00
2019-02-25T15:01:25.061Z,35.30
2019-02-25T15:03:50.852Z,35.00
2019-02-25T15:06:16.891Z,35.40
2019-02-25T15:08:42.907Z,35.40
2019-02-25T15:11:10.846Z,36.10
2019-02-25T15:13:37.604Z,36.80
2019-02-25T15:16:04.903Z,40.60
2019-02-25T15:18:31.347Z,42.50
2019-02-25T15:20:58.455Z,44.30
2019-02-25T15:23:27.469Z,43.10
2019-02-25T15:25:53.743Z,44.60
2019-02-25T15:28:20.359Z,46.30
2019-02-25T15:30:47.784Z,46.00
2019-02-25T15:33:13.867Z,46.90
2019-02-25T15:35:41.564Z,47.60
2019-02-25T15:38:08.032Z,47.60
2019-02-25T15:40:34.166Z,48.40
2019-02-25T15:43:03.291Z,47.80
2019-02-25T15:45:32.839Z,48.70
2019-02-25T15:47:59.762Z,48.50
2019-02-25T15:50:26.099Z,48.40
2019-02-25T15:52:52.145Z,49.10
2019-02-25T15:55:19.513Z,49.40
2019-02-25T15:57:46.111Z,49.60
2019-02-25T16:00:19.058Z,49.20
2019-02-25T16:02:50.195Z,49.30
2019-02-25T16:05:16.207Z,49.50
2019-02-25T16:07:42.358Z,49.80
2019-02-25T16:10:12.074Z,50.00
2019-02-25T16:12:38.528Z,50.10
2019-02-25T16:15:11.133Z,50.20
2019-02-25T16:17:38.904Z,50.30
2019-02-25T16:20:08.027Z,50.50
2019-02-25T16:22:35.972Z,51.20
2019-02-25T16:25:03.120Z,51.40
2019-02-25T16:27:30.241Z,51.50
2019-02-25T16:29:57.990Z,51.80
2019-02-25T16:32:26.135Z,51.90
2019-02-25T16:34:52.295Z,52.30
2019-02-25T16:37:19.791Z,52.60
2019-02-25T16:39:47.407Z,52.30
2019-02-25T16:42:13.455Z,52.80
2019-02-25T16:44:39.586Z,52.90
2019-02-25T16:47:07.844Z,49.90
2019-02-25T16:49:34.420Z,48.90
2019-02-25T16:52:02.252Z,49.10
2019-02-25T16:54:28.403Z,48.90
2019-02-25T16:56:54.551Z,49.10
2019-02-25T16:59:22.584Z,48.60
2019-02-25T17:01:48.922Z,48.70
2019-02-25T17:04:16.833Z,48.70
2019-02-25T17:06:42.994Z,48.10
2019-02-25T17:09:15.974Z,48.70
2019-02-25T17:11:43.503Z,49.40
2019-02-25T17:14:10.067Z,49.40
2019-02-25T17:16:36.133Z,49.10
2019-02-25T17:19:02.208Z,49.10
2019-02-25T17:21:28.740Z,48.30
2019-02-25T17:23:56.490Z,49.40
2019-02-25T17:26:22.902Z,49.10
2019-02-25T17:28:48.954Z,49.20
2019-02-25T17:31:16.364Z,49.50
2019-02-25T17:33:43.089Z,50.10
2019-02-25T17:36:10.246Z,50.30
2019-02-25T17:38:37.563Z,50.70
2019-02-25T17:41:05.959Z,50.90
2019-02-25T17:43:34.260Z,51.10
2019-02-25T17:46:04.519Z,51.40
2019-02-25T17:48:29.598Z,51.70
2019-02-25T17:50:57.246Z,52.40
2019-02-25T17:53:24.100Z,52.70
2019-02-25T17:55:53.166Z,53.00
2019-02-25T17:58:20.316Z,53.00
2019-02-25T18:00:47.555Z,52.90
2019-02-25T18:03:15.444Z,53.10
2019-02-25T18:05:43.243Z,53.30
2019-02-25T18:08:13.259Z,53.60
2019-02-25T18:10:39.029Z,54.30
2019-02-25T18:13:06.709Z,55.20
2019-02-25T18:15:33.115Z,54.70
2019-02-25T18:17:59.343Z,55.00
2019-02-25T18:20:25.559Z,55.60
2019-02-25T18:22:51.621Z,55.00
2019-02-25T18:25:18.435Z,54.90
2019-02-25T18:27:49.504Z,54.80
2019-02-25T18:30:20.907Z,54.50
2019-02-25T18:32:47.355Z,54.70
2019-02-25T18:35:14.433Z,55.20
2019-02-25T18:37:43.422Z,55.30
2019-02-25T18:40:11.660Z,55.60
2019-02-25T18:42:40.846Z,55.50
2019-02-25T18:45:11.088Z,55.00
2019-02-25T18:47:37.892Z,55.50
2019-02-25T18:50:10.831Z,54.90
2019-02-25T18:52:38.510Z,54.90
2019-02-25T18:55:09.056Z,54.80
2019-02-25T18:57:36.359Z,54.40
2019-02-25T19:00:08.880Z,54.30
2019-02-25T19:02:35.969Z,55.00
2019-02-25T19:05:06.455Z,54.00
2019-02-25T19:07:33.664Z,54.10
2019-02-25T19:10:00.040Z,53.90
2019-02-25T19:12:26.165Z,54.10
2019-02-25T19:14:55.153Z,54.10
2019-02-25T19:17:20.967Z,54.00
2019-02-25T19:19:49.928Z,54.00
2019-02-25T19:22:17.387Z,54.00
2019-02-25T19:24:44.574Z,54.20
2019-02-25T19:27:12.946Z,54.10
2019-02-25T19:29:39.120Z,54.20
2019-02-25T19:32:05.147Z,54.80
2019-02-25T19:34:31.385Z,55.40
2019-02-25T19:37:00.176Z,55.60
2019-02-25T19:39:25.426Z,55.10
2019-02-25T19:41:53.487Z,55.50
2019-02-25T19:44:21.130Z,55.40
2019-02-25T19:46:48.709Z,55.80
2019-02-25T19:49:16.086Z,56.10
2019-02-25T19:51:43.874Z,56.70
2019-02-25T19:54:11.587Z,56.80
2019-02-25T19:56:39.072Z,56.50
2019-02-25T19:59:06.103Z,56.50
2019-02-25T20:01:33.593Z,57.20
2019-02-25T20:04:04.305Z,56.50
2019-02-25T20:06:28.110Z,56.60
2019-02-25T20:08:56.529Z,57.00
2019-02-25T20:11:22.419Z,56.40
2019-02-25T20:13:48.463Z,56.30
2019-02-25T20:16:18.049Z,56.40
2019-02-25T20:18:42.937Z,56.40
2019-02-25T20:21:08.987Z,56.60
2019-02-25T20:23:35.058Z,56.20
2019-02-25T20:26:01.111Z,55.90
2019-02-25T20:28:27.135Z,56.10
2019-02-25T20:30:53.817Z,56.60
2019-02-25T20:33:20.158Z,56.40
2019-02-25T20:35:51.093Z,56.40
2019-02-25T20:38:14.199Z,56.30
2019-02-25T20:40:40.245Z,56.50
2019-02-25T20:43:06.352Z,56.80
2019-02-25T20:45:35.356Z,56.30
2019-02-25T20:48:01.966Z,56.20
2019-02-25T20:50:28.271Z,56.20
2019-02-25T20:52:55.858Z,56.40
2019-02-25T20:55:22.229Z,57.20
2019-02-25T20:57:48.254Z,58.10
2019-02-25T21:00:20.101Z,57.20
2019-02-25T21:02:46.304Z,57.30
2019-02-25T21:05:14.667Z,58.00
2019-02-25T21:07:40.308Z,57.50
2019-02-25T21:10:10.974Z,58.50
2019-02-25T21:12:37.130Z,58.40
2019-02-25T21:15:06.273Z,58.20
2019-02-25T21:17:33.118Z,60.80
2019-02-25T21:20:00.750Z,59.40
2019-02-25T21:22:29.494Z,61.70
2019-02-25T21:24:57.932Z,61.00
2019-02-25T21:27:28.349Z,62.70
2019-02-25T21:29:53.019Z,63.80
2019-02-25T21:32:21.949Z,65.30
2019-02-25T21:34:52.582Z,65.70
2019-02-25T21:37:15.900Z,65.60
2019-02-25T21:39:42.816Z,67.30
2019-02-25T21:42:12.654Z,68.10
2019-02-25T21:44:36.907Z,67.00
2019-02-25T21:47:03.747Z,67.80
2019-02-25T21:49:33.788Z,67.20
2019-02-25T21:52:00.295Z,67.90
2019-02-25T21:54:26.797Z,67.70
2019-02-25T21:56:52.836Z,69.30
2019-02-25T21:59:18.872Z,67.90
2019-02-25T22:01:44.917Z,71.10
2019-02-25T22:04:13.156Z,70.50
2019-02-25T22:06:38.911Z,69.90
2019-02-25T22:09:05.169Z,69.80
2019-02-25T22:11:31.284Z,69.60
2019-02-25T22:13:57.451Z,69.90
2019-02-25T22:16:24.019Z,70.50
2019-02-25T22:18:52.056Z,70.60
2019-02-25T22:21:21.127Z,73.00
2019-02-25T22:23:49.474Z,72.30
2019-02-25T22:26:15.284Z,72.80
2019-02-25T22:28:41.311Z,73.20
2019-02-25T22:31:08.896Z,73.30
2019-02-25T22:33:35.276Z,72.90
2019-02-25T22:36:02.483Z,73.00
2019-02-25T22:38:28.491Z,73.30
2019-02-25T22:40:55.953Z,73.20
2019-02-25T22:43:22.448Z,73.80
2019-02-25T22:45:48.634Z,74.10
2019-02-25T22:48:16.385Z,73.60
2019-02-25T22:50:42.588Z,74.50
2019-02-25T22:53:09.366Z,73.20
2019-02-25T22:55:39.303Z,73.10
2019-02-25T22:58:06.035Z,72.70
2019-02-25T23:00:42.146Z,74.40
2019-02-25T23:03:11.148Z,73.60
2019-02-25T23:05:38.988Z,73.30
2019-02-25T23:08:04.210Z,71.40
2019-02-25T23:10:30.233Z,71.00
2019-02-25T23:12:56.295Z,67.20
2019-02-25T23:15:24.588Z,67.60
2019-02-25T23:17:50.235Z,67.70
2019-02-25T23:20:16.256Z,67.90
2019-02-25T23:22:42.299Z,68.10
2019-02-25T23:25:09.531Z,66.80
2019-02-25T23:27:36.534Z,68.90
2019-02-25T23:30:08.544Z,68.30
2019-02-25T23:32:38.849Z,67.60
2019-02-25T23:35:04.377Z,67.40
2019-02-25T23:37:30.416Z,67.90
2019-02-25T23:40:00.057Z,67.10
2019-02-25T23:42:24.367Z,66.90
2019-02-25T23:44:50.379Z,66.50
2019-02-25T23:47:16.411Z,67.40
2019-02-25T23:49:43.875Z,68.20
2019-02-25T23:52:10.356Z,67.20
2019-02-25T23:54:36.381Z,67.00
2019-02-25T23:57:02.415Z,66.80
2019-02-25T23:59:28.426Z,67.00
